createdAt,value
2023-02-19T00:02:31.291Z,2.26
2023-02-19T00:07:37.104Z,2.26
2023-02-19T00:12:42.623Z,2.27
2023-02-19T00:17:48.111Z,2.22
2023-02-19T00:22:53.759Z,2.22
2023-02-19T00:27:59.343Z,2.24
2023-02-19T00:33:05.235Z,2.26
2023-02-19T00:38:11.139Z,2.23
2023-02-19T00:43:16.719Z,2.23
2023-02-19T00:48:22.342Z,2.27
2023-02-19T00:53:28.747Z,2.29
2023-02-19T00:58:35.024Z,2.29
2023-02-19T01:03:41.226Z,2.31
2023-02-19T01:08:47.646Z,2.37
2023-02-19T01:13:56.514Z,2.45
2023-02-19T01:19:02.265Z,2.50
2023-02-19T01:24:08.162Z,2.52
2023-02-19T01:29:13.989Z,2.52
2023-02-19T01:34:19.586Z,2.56
2023-02-19T01:39:25.202Z,2.61
2023-02-19T01:45:05.664Z,2.63
2023-02-19T01:50:11.903Z,2.61
2023-02-19T01:55:17.752Z,2.60
2023-02-19T02:00:24.829Z,2.61
2023-02-19T02:05:45.577Z,2.66
2023-02-19T02:10:52.110Z,2.67
2023-02-19T02:16:07.631Z,2.65
2023-02-19T02:21:32.696Z,2.63
2023-02-19T02:26:53.721Z,2.65
2023-02-19T02:32:03.900Z,2.68
2023-02-19T02:37:12.460Z,2.69
2023-02-19T02:42:27.213Z,2.68
2023-02-19T02:47:57.471Z,2.66
2023-02-19T02:53:26.435Z,2.69
2023-02-19T02:58:34.105Z,2.69
2023-02-19T03:03:44.046Z,2.65
2023-02-19T03:08:57.220Z,2.62
2023-02-19T03:14:27.373Z,2.62
2023-02-19T03:19:41.800Z,2.64
2023-02-19T03:25:11.137Z,2.63
2023-02-19T03:30:22.460Z,2.57
2023-02-19T03:35:28.894Z,2.49
2023-02-19T03:40:41.657Z,2.40
2023-02-19T03:45:55.729Z,2.34
2023-02-19T03:51:14.268Z,2.30
2023-02-19T03:56:27.930Z,2.21
2023-02-19T04:01:42.349Z,2.13
2023-02-19T04:06:54.408Z,2.09
2023-02-19T04:12:01.846Z,1.99
2023-02-19T04:17:13.808Z,1.87
2023-02-19T04:22:20.180Z,1.75
2023-02-19T04:27:25.912Z,1.70
2023-02-19T04:32:31.675Z,1.66
2023-02-19T04:37:37.534Z,1.57
2023-02-19T04:42:43.450Z,1.45
2023-02-19T04:47:49.035Z,1.40
2023-02-19T04:52:54.593Z,1.38
2023-02-19T04:58:01.840Z,1.34
2023-02-19T05:03:07.498Z,1.29
2023-02-19T05:08:13.425Z,1.26
2023-02-19T05:13:19.337Z,1.27
2023-02-19T05:18:25.115Z,1.26
2023-02-19T05:23:31.197Z,1.23
2023-02-19T05:28:37.166Z,1.23
2023-02-19T05:33:44.188Z,1.27
2023-02-19T05:38:54.839Z,1.30
2023-02-19T05:44:00.546Z,1.29
2023-02-19T05:49:06.203Z,1.30
2023-02-19T05:54:12.095Z,1.34
2023-02-19T05:59:19.959Z,1.37
2023-02-19T06:04:25.597Z,1.37
2023-02-19T06:09:32.388Z,1.40
2023-02-19T06:14:38.224Z,1.50
2023-02-19T06:19:43.957Z,1.61
2023-02-19T06:24:50.368Z,1.66
2023-02-19T06:29:56.235Z,1.74
2023-02-19T06:35:02.175Z,1.86
2023-02-19T06:40:09.147Z,1.92
2023-02-19T06:45:15.537Z,1.98
2023-02-19T06:50:21.180Z,2.08
2023-02-19T06:55:27.041Z,2.24
2023-02-19T07:00:33.610Z,2.36
2023-02-19T07:05:39.404Z,2.44
2023-02-19T07:10:45.372Z,2.47
2023-02-19T07:15:52.194Z,2.54
2023-02-19T07:21:04.144Z,2.61
2023-02-19T07:26:13.808Z,2.64
2023-02-19T07:31:21.344Z,2.65
2023-02-19T07:36:27.072Z,2.77
2023-02-19T07:41:33.010Z,2.90
2023-02-19T07:46:39.174Z,3.01
2023-02-19T07:51:45.171Z,3.07
2023-02-19T07:56:50.974Z,3.19
2023-02-19T08:02:15.181Z,3.34
2023-02-19T08:07:20.839Z,3.43
2023-02-19T08:12:45.415Z,3.51
2023-02-19T08:17:51.508Z,3.51
2023-02-19T08:22:57.134Z,3.53
2023-02-19T08:28:03.056Z,3.54
2023-02-19T08:33:10.636Z,3.55
2023-02-19T08:38:16.565Z,3.56
2023-02-19T08:43:22.152Z,3.65
2023-02-19T08:48:28.820Z,3.75
2023-02-19T08:53:35.688Z,3.81
2023-02-19T08:58:42.691Z,3.87
2023-02-19T09:03:48.616Z,3.85
2023-02-19T09:08:54.312Z,3.84
2023-02-19T09:14:00.093Z,3.75
2023-02-19T09:19:06.325Z,3.77
2023-02-19T09:24:11.866Z,4.03
2023-02-19T09:29:17.973Z,4.28
2023-02-19T09:34:23.678Z,4.51
2023-02-19T09:39:29.740Z,4.56
2023-02-19T09:44:37.899Z,4.62
2023-02-19T09:49:50.200Z,4.71
2023-02-19T09:54:59.413Z,5.43
2023-02-19T10:00:14.139Z,7.33
2023-02-19T10:05:21.792Z,8.33
2023-02-19T10:10:32.028Z,8.69
2023-02-19T10:15:44.382Z,8.34
2023-02-19T10:20:52.273Z,7.61
2023-02-19T10:26:00.182Z,6.94
2023-02-19T10:31:11.618Z,6.48
2023-02-19T10:36:29.235Z,6.49
2023-02-19T10:41:43.798Z,6.77
2023-02-19T10:46:55.318Z,6.98
2023-02-19T10:52:05.470Z,7.08
2023-02-19T10:57:32.987Z,6.83
2023-02-19T11:02:39.069Z,6.39
2023-02-19T11:07:49.380Z,6.47
2023-02-19T11:12:57.925Z,6.62
2023-02-19T11:18:21.231Z,6.51
2023-02-19T11:23:30.749Z,6.23
2023-02-19T11:28:38.822Z,5.97
2023-02-19T11:33:53.764Z,5.85
2023-02-19T11:39:18.008Z,5.68
2023-02-19T11:44:36.728Z,5.69
2023-02-19T11:49:50.262Z,5.93
2023-02-19T11:55:03.084Z,6.51
2023-02-19T12:00:22.658Z,6.71
2023-02-19T12:05:42.025Z,6.85
2023-02-19T12:11:01.470Z,7.03
2023-02-19T12:16:18.210Z,7.28
2023-02-19T12:21:37.391Z,7.08
2023-02-19T12:26:51.397Z,6.52
2023-02-19T12:32:24.504Z,6.13
2023-02-19T12:37:44.167Z,5.80
2023-02-19T12:43:01.817Z,6.09
2023-02-19T12:48:18.177Z,6.53
2023-02-19T12:53:37.778Z,7.15
2023-02-19T12:58:47.989Z,7.57
2023-02-19T13:04:05.015Z,7.86
2023-02-19T13:09:18.039Z,7.96
2023-02-19T13:14:29.474Z,7.85
2023-02-19T13:19:36.993Z,7.72
2023-02-19T13:24:45.726Z,7.57
2023-02-19T13:30:06.442Z,7.21
2023-02-19T13:35:54.934Z,6.70
2023-02-19T13:41:02.009Z,6.06
2023-02-19T13:46:12.318Z,5.76
2023-02-19T13:51:51.444Z,5.61
2023-02-19T13:57:29.442Z,5.35
2023-02-19T14:02:35.642Z,5.16
2023-02-19T14:07:55.734Z,5.08
2023-02-19T14:13:01.396Z,4.93
2023-02-19T14:18:45.646Z,4.84
2023-02-19T14:23:55.919Z,4.77
2023-02-19T14:29:02.682Z,4.73
2023-02-19T14:34:19.645Z,4.68
2023-02-19T14:39:29.211Z,4.61
2023-02-19T14:44:41.364Z,4.53
2023-02-19T14:49:52.581Z,4.40
2023-02-19T14:55:04.033Z,4.29
2023-02-19T15:00:24.904Z,4.23
2023-02-19T15:05:32.394Z,4.20
2023-02-19T15:10:39.237Z,4.16
2023-02-19T15:15:46.737Z,4.12
2023-02-19T15:20:58.945Z,4.06
2023-02-19T15:26:05.104Z,4.04
2023-02-19T15:31:16.192Z,3.98
2023-02-19T15:36:24.132Z,3.85
2023-02-19T15:41:33.544Z,3.73
2023-02-19T15:46:41.107Z,3.61
2023-02-19T15:51:51.672Z,3.45
2023-02-19T15:57:02.878Z,3.30
2023-02-19T16:02:12.653Z,3.19
2023-02-19T16:07:29.358Z,3.09
2023-02-19T16:12:35.229Z,2.94
2023-02-19T16:17:44.406Z,2.77
2023-02-19T16:22:51.528Z,2.64
2023-02-19T16:27:58.143Z,2.56
2023-02-19T16:33:33.088Z,2.49
2023-02-19T16:38:39.573Z,2.43
2023-02-19T16:43:45.116Z,2.45
2023-02-19T16:48:51.574Z,2.52
2023-02-19T16:53:57.101Z,2.60
2023-02-19T16:59:02.846Z,2.63
2023-02-19T17:04:10.820Z,2.67
2023-02-19T17:09:16.683Z,2.70
2023-02-19T17:14:22.471Z,2.73
2023-02-19T17:19:28.072Z,2.76
2023-02-19T17:24:34.113Z,2.77
2023-02-19T17:29:39.878Z,2.74
2023-02-19T17:34:59.764Z,2.63
2023-02-19T17:40:15.220Z,2.48
2023-02-19T17:45:24.630Z,2.33
2023-02-19T17:50:33.901Z,2.30
2023-02-19T17:55:39.633Z,2.29
2023-02-19T18:00:45.507Z,2.24
2023-02-19T18:05:51.432Z,2.13
2023-02-19T18:10:57.181Z,2.03
2023-02-19T18:16:02.961Z,1.95
2023-02-19T18:21:11.630Z,1.85
2023-02-19T18:26:21.531Z,1.73
2023-02-19T18:31:27.570Z,1.62
2023-02-19T18:36:34.718Z,1.51
2023-02-19T18:41:40.643Z,1.39
2023-02-19T18:46:46.287Z,1.27
2023-02-19T18:51:52.329Z,1.16
2023-02-19T18:57:00.661Z,1.07
2023-02-19T19:02:07.729Z,0.96
2023-02-19T19:07:13.371Z,0.87
2023-02-19T19:12:19.401Z,0.81
2023-02-19T19:17:24.966Z,0.81
2023-02-19T19:22:30.575Z,0.83
2023-02-19T19:27:36.275Z,0.84
2023-02-19T19:32:42.342Z,0.81
2023-02-19T19:37:50.592Z,0.73
2023-02-19T19:42:56.443Z,0.64
2023-02-19T19:48:02.168Z,0.57
2023-02-19T19:53:07.757Z,0.48
2023-02-19T19:58:13.372Z,0.39
2023-02-19T20:03:19.525Z,0.32
2023-02-19T20:08:25.153Z,0.25
2023-02-19T20:13:32.512Z,0.21
2023-02-19T20:18:38.140Z,0.18
2023-02-19T20:23:43.744Z,0.20
2023-02-19T20:28:49.621Z,0.22
2023-02-19T20:33:55.532Z,0.22
2023-02-19T20:39:01.307Z,0.21
2023-02-19T20:44:07.157Z,0.18
2023-02-19T20:49:13.568Z,0.10
2023-02-19T20:54:20.490Z,0.01
2023-02-19T20:59:30.801Z,-0.08
2023-02-19T21:04:39.608Z,-0.16
2023-02-19T21:09:45.188Z,-0.24
2023-02-19T21:14:51.104Z,-0.32
2023-02-19T21:19:56.895Z,-0.39
2023-02-19T21:25:02.540Z,-0.41
2023-02-19T21:30:09.781Z,-0.37
2023-02-19T21:35:15.504Z,-0.33
2023-02-19T21:40:23.367Z,-0.29
2023-02-19T21:45:28.997Z,-0.30
2023-02-19T21:50:34.891Z,-0.34
2023-02-19T21:55:42.891Z,-0.41
2023-02-19T22:00:56.412Z,-0.46
2023-02-19T22:06:04.532Z,-0.50
2023-02-19T22:11:10.842Z,-0.51
2023-02-19T22:16:17.310Z,-0.48
2023-02-19T22:21:26.147Z,-0.42
2023-02-19T22:26:34.121Z,-0.31
2023-02-19T22:31:39.981Z,-0.22
2023-02-19T22:36:45.934Z,-0.20
2023-02-19T22:41:52.374Z,-0.23
2023-02-19T22:46:58.294Z,-0.27
2023-02-19T22:52:07.719Z,-0.24
2023-02-19T22:57:13.375Z,-0.14
2023-02-19T23:02:19.142Z,0.00
2023-02-19T23:07:24.811Z,0.15
2023-02-19T23:12:30.593Z,0.27
2023-02-19T23:17:36.307Z,0.33
2023-02-19T23:22:41.916Z,0.39
2023-02-19T23:27:47.484Z,0.44
2023-02-19T23:32:53.205Z,0.51
2023-02-19T23:38:00.998Z,0.61
2023-02-19T23:43:06.540Z,0.68
2023-02-19T23:48:14.766Z,0.60
2023-02-19T23:53:23.382Z,0.46
2023-02-19T23:58:29.111Z,0.43
